Terminal Aerodrome Forecast
Issued by NWS

Home | Current Version | Previous Version | Text Only | Print | Product List | Glossary On
Versions: 1 2 3 4 5 6 7 8 9 10 11 12 13 14 15 16 17 18 19 20 21 22 23 24 25 26 27 28 29 30 31 32 33 34 35
000
FTUS41 KBOX 291728
TAFBAF
TAF
KBAF 291728Z 2918/3018 VRB03KT P6SM SCT150 BKN250
     FM292200 VRB03KT P6SM BKN110
     FM300300 16004KT P6SM OVC010
     FM300400 VRB03KT 3SM -SN OVC010
     FM300500 VRB03KT 1SM -SN OVC010
     FM301000 VRB03KT 1SM -SN OVC003
     FM301200 VRB03KT 1SM -SN OVC008
     FM301500 29004KT P6SM OVC015=

USA.gov is the U.S. government's official web portal to all federal, state and local government web resources and services.